createdAt,value
2022-11-16T00:01:33.854Z,49.22
2022-11-16T00:04:02.556Z,46.58
2022-11-16T00:06:29.815Z,47.28
2022-11-16T00:09:18.198Z,46.88
2022-11-16T00:11:45.528Z,42.30
2022-11-16T00:14:12.636Z,45.53
2022-11-16T00:16:39.957Z,42.17
2022-11-16T00:19:07.357Z,48.28
2022-11-16T00:21:34.937Z,45.72
2022-11-16T00:24:03.280Z,44.80
2022-11-16T00:26:30.446Z,41.83
2022-11-16T00:28:57.781Z,43.78
2022-11-16T00:31:25.282Z,41.92
2022-11-16T00:33:52.648Z,47.58
2022-11-16T00:36:19.836Z,42.95
2022-11-16T00:38:47.612Z,44.13
2022-11-16T00:41:14.749Z,41.85
2022-11-16T00:43:41.867Z,43.72
2022-11-16T00:46:09.663Z,38.42
2022-11-16T00:48:36.960Z,37.60
2022-11-16T00:51:04.807Z,43.05
2022-11-16T00:53:33.133Z,33.95
2022-11-16T00:56:00.225Z,34.15
2022-11-16T00:58:28.437Z,35.35
2022-11-16T01:01:09.098Z,38.53
2022-11-16T01:03:37.233Z,38.70
2022-11-16T01:06:07.049Z,42.60
2022-11-16T01:08:36.947Z,37.38
2022-11-16T01:11:27.813Z,40.25
2022-11-16T01:13:55.639Z,39.80
2022-11-16T01:16:23.661Z,40.38
2022-11-16T01:18:53.247Z,41.67
2022-11-16T01:21:21.465Z,40.13
2022-11-16T01:23:49.097Z,42.10
2022-11-16T01:26:16.807Z,38.92
2022-11-16T01:28:44.558Z,41.25
2022-11-16T01:31:13.090Z,39.35
2022-11-16T01:33:41.090Z,43.85
2022-11-16T01:36:15.466Z,36.33
2022-11-16T01:38:45.604Z,37.28
2022-11-16T01:41:22.430Z,37.55
2022-11-16T01:44:25.980Z,37.58
2022-11-16T01:46:56.225Z,37.97
2022-11-16T01:49:25.647Z,39.83
2022-11-16T01:51:59.356Z,47.72
2022-11-16T01:54:30.955Z,47.38
2022-11-16T01:57:07.125Z,39.75
2022-11-16T01:59:47.146Z,44.28
2022-11-16T02:02:18.189Z,51.70
2022-11-16T02:04:47.606Z,48.13
2022-11-16T02:07:26.573Z,53.22
2022-11-16T02:10:20.762Z,42.28
2022-11-16T02:12:57.024Z,43.13
2022-11-16T02:15:45.529Z,39.60
2022-11-16T02:18:37.391Z,42.45
2022-11-16T02:21:17.202Z,43.50
2022-11-16T02:24:05.167Z,43.15
2022-11-16T02:26:41.866Z,65.00
2022-11-16T02:29:37.134Z,46.90
2022-11-16T02:32:08.486Z,49.25
2022-11-16T02:34:42.149Z,46.33
2022-11-16T02:37:14.981Z,41.85
2022-11-16T02:39:45.485Z,40.78
2022-11-16T02:42:18.482Z,52.85
2022-11-16T02:44:48.196Z,46.90
2022-11-16T02:47:24.825Z,37.97
2022-11-16T02:49:58.101Z,41.60
2022-11-16T02:52:28.356Z,42.83
2022-11-16T02:54:55.759Z,40.47
2022-11-16T02:57:57.537Z,36.83
2022-11-16T03:00:33.834Z,36.60
2022-11-16T03:03:16.507Z,36.35
2022-11-16T03:05:52.541Z,31.75
2022-11-16T03:08:33.824Z,35.60
2022-11-16T03:13:55.551Z,29.35
2022-11-16T03:16:28.405Z,36.35
2022-11-16T03:19:01.795Z,34.90
2022-11-16T03:21:37.520Z,32.45
2022-11-16T03:24:05.987Z,34.80
2022-11-16T03:26:42.889Z,35.03
2022-11-16T03:29:26.593Z,35.83
2022-11-16T03:32:02.913Z,36.53
2022-11-16T03:34:35.813Z,38.03
2022-11-16T03:37:05.645Z,38.65
2022-11-16T03:39:38.912Z,34.28
2022-11-16T03:42:14.060Z,35.67
2022-11-16T03:44:45.055Z,39.97
2022-11-16T03:47:13.384Z,36.65
2022-11-16T03:49:45.593Z,33.75
2022-11-16T03:52:16.205Z,41.70
2022-11-16T03:54:43.999Z,39.05
2022-11-16T03:57:15.585Z,44.42
2022-11-16T03:59:46.068Z,42.00
2022-11-16T04:02:13.330Z,39.20
2022-11-16T04:04:59.053Z,43.20
2022-11-16T04:07:44.867Z,41.88
2022-11-16T04:10:31.507Z,45.58
2022-11-16T04:13:18.873Z,50.53
2022-11-16T04:16:04.830Z,45.95
2022-11-16T04:18:50.431Z,43.65
2022-11-16T04:21:42.261Z,45.60
2022-11-16T04:24:15.185Z,49.35
2022-11-16T04:27:03.826Z,49.03
2022-11-16T04:29:31.754Z,46.03
2022-11-16T04:32:20.090Z,45.05
2022-11-16T04:35:06.184Z,48.58
2022-11-16T04:37:51.587Z,50.60
2022-11-16T04:40:29.724Z,42.30
2022-11-16T04:43:01.108Z,48.47
2022-11-16T04:45:51.359Z,46.35
2022-11-16T04:48:21.327Z,46.13
2022-11-16T04:50:53.209Z,45.83
2022-11-16T04:53:22.444Z,50.13
2022-11-16T04:56:00.609Z,50.33
2022-11-16T04:58:28.778Z,44.28
2022-11-16T05:00:56.287Z,48.22
2022-11-16T05:03:23.404Z,42.05
2022-11-16T05:05:51.033Z,38.15
2022-11-16T05:08:18.604Z,36.53
2022-11-16T05:10:51.098Z,37.65
2022-11-16T05:13:18.499Z,40.65
2022-11-16T05:15:46.172Z,39.17
2022-11-16T05:18:13.693Z,45.63
2022-11-16T05:20:59.485Z,44.75
2022-11-16T05:23:46.665Z,45.90
2022-11-16T05:26:16.158Z,39.40
2022-11-16T05:28:43.442Z,43.72
2022-11-16T05:31:12.669Z,43.10
2022-11-16T05:33:39.841Z,42.45
2022-11-16T05:36:08.262Z,41.17
2022-11-16T05:38:35.833Z,46.28
2022-11-16T05:41:03.266Z,43.10
2022-11-16T05:43:31.129Z,48.30
2022-11-16T05:46:09.679Z,43.08
2022-11-16T05:48:37.753Z,48.13
2022-11-16T05:51:06.501Z,46.78
2022-11-16T05:53:34.912Z,56.55
2022-11-16T05:56:02.605Z,49.00
2022-11-16T05:58:32.900Z,50.95
2022-11-16T06:01:00.711Z,54.95
2022-11-16T06:03:29.713Z,48.30
2022-11-16T06:05:58.177Z,52.53
2022-11-16T06:08:27.578Z,49.67
2022-11-16T06:11:01.837Z,46.78
2022-11-16T06:13:30.838Z,43.53
2022-11-16T06:16:01.145Z,43.00
2022-11-16T06:18:30.584Z,45.47
2022-11-16T06:20:58.153Z,43.53
2022-11-16T06:23:26.262Z,78.57
2022-11-16T06:25:55.328Z,42.25
2022-11-16T06:28:25.072Z,41.38
2022-11-16T06:30:52.330Z,37.08
2022-11-16T06:33:19.525Z,34.75
2022-11-16T06:35:47.092Z,33.83
2022-11-16T06:38:20.625Z,36.05
2022-11-16T06:40:51.873Z,28.75
2022-11-16T06:43:20.275Z,27.98
2022-11-16T06:45:56.025Z,30.80
2022-11-16T06:48:23.385Z,29.38
2022-11-16T06:50:52.091Z,33.35
2022-11-16T06:53:27.522Z,25.67
2022-11-16T06:56:05.969Z,27.58
2022-11-16T06:58:38.792Z,27.63
2022-11-16T07:01:09.870Z,31.20
2022-11-16T07:03:39.782Z,27.05
2022-11-16T07:06:10.191Z,29.00
2022-11-16T07:08:39.145Z,31.75
2022-11-16T07:11:08.056Z,29.35
2022-11-16T07:13:36.688Z,30.80
2022-11-16T07:16:07.621Z,31.42
2022-11-16T07:18:36.967Z,29.08
2022-11-16T07:21:07.896Z,27.20
2022-11-16T07:23:36.769Z,31.10
2022-11-16T07:26:06.600Z,32.45
2022-11-16T07:28:45.014Z,28.08
2022-11-16T07:31:17.065Z,37.35
2022-11-16T07:33:44.520Z,35.00
2022-11-16T07:36:37.483Z,34.08
2022-11-16T07:39:04.777Z,36.50
2022-11-16T07:41:31.945Z,33.38
2022-11-16T07:44:12.223Z,38.50
2022-11-16T07:46:46.969Z,36.88
2022-11-16T07:49:16.860Z,36.00
2022-11-16T07:52:10.107Z,31.65
2022-11-16T07:55:05.613Z,35.90
2022-11-16T07:57:33.737Z,37.30
2022-11-16T08:00:06.185Z,33.70
2022-11-16T08:02:46.918Z,33.50
2022-11-16T08:05:18.526Z,41.60
2022-11-16T08:07:46.578Z,31.17
2022-11-16T08:10:13.962Z,38.75
2022-11-16T08:12:41.452Z,31.27
2022-11-16T08:15:09.053Z,36.72
2022-11-16T08:17:36.197Z,33.45
2022-11-16T08:20:06.062Z,35.78
2022-11-16T08:22:33.146Z,34.22
2022-11-16T08:25:00.816Z,34.25
2022-11-16T08:27:28.571Z,33.90
2022-11-16T08:29:57.499Z,34.75
2022-11-16T08:32:24.929Z,36.40
2022-11-16T08:34:54.148Z,33.88
2022-11-16T08:37:23.280Z,36.00
2022-11-16T08:39:50.778Z,39.40
2022-11-16T08:42:20.541Z,40.97
2022-11-16T08:44:49.937Z,42.60
2022-11-16T08:47:20.327Z,39.85
2022-11-16T08:49:51.934Z,41.40
2022-11-16T08:52:21.525Z,35.75
2022-11-16T08:54:51.019Z,37.00
2022-11-16T08:57:19.268Z,42.58
2022-11-16T08:59:49.858Z,35.22
2022-11-16T09:02:18.439Z,37.75
2022-11-16T09:04:45.545Z,32.80
2022-11-16T09:07:12.697Z,36.40
2022-11-16T09:09:39.916Z,36.75
2022-11-16T09:12:07.102Z,37.78
2022-11-16T09:14:34.211Z,33.60
2022-11-16T09:17:01.397Z,33.88
2022-11-16T09:19:28.728Z,32.70
2022-11-16T09:21:55.876Z,33.58
2022-11-16T09:24:22.971Z,30.05
2022-11-16T09:26:50.154Z,31.35
2022-11-16T09:29:17.268Z,34.15
2022-11-16T09:31:45.313Z,29.60
2022-11-16T09:34:12.439Z,32.75
2022-11-16T09:36:39.583Z,29.80
2022-11-16T09:42:32.474Z,27.23
2022-11-16T09:45:12.374Z,21.08
2022-11-16T09:48:03.604Z,24.45
2022-11-16T09:50:57.570Z,20.92
2022-11-16T09:53:38.577Z,19.33
2022-11-16T09:56:17.773Z,20.10
2022-11-16T09:59:05.687Z,17.17
2022-11-16T10:01:40.392Z,16.92
2022-11-16T10:04:18.155Z,14.23
2022-11-16T10:07:12.152Z,13.95
2022-11-16T10:09:39.641Z,12.13
2022-11-16T10:12:09.482Z,14.20
2022-11-16T10:15:12.749Z,13.15
2022-11-16T10:17:57.840Z,11.30
2022-11-16T10:20:51.917Z,12.23
2022-11-16T10:23:27.620Z,8.70
2022-11-16T10:26:22.125Z,11.00
2022-11-16T10:29:13.748Z,12.10
2022-11-16T10:32:17.690Z,11.20
2022-11-16T10:34:57.015Z,11.65
2022-11-16T10:37:30.206Z,9.85
2022-11-16T10:39:57.565Z,10.23
2022-11-16T10:42:46.957Z,9.40
2022-11-16T10:45:20.894Z,10.95
2022-11-16T10:47:57.436Z,10.77
2022-11-16T10:50:37.663Z,11.00
2022-11-16T10:53:04.822Z,9.05
2022-11-16T10:55:32.277Z,7.55
2022-11-16T10:58:05.206Z,7.25
2022-11-16T11:00:41.420Z,8.38
2022-11-16T11:03:10.784Z,7.70
2022-11-16T11:05:47.946Z,6.80
2022-11-16T11:08:25.966Z,6.15
2022-11-16T11:11:24.800Z,7.90
2022-11-16T11:14:09.313Z,6.85
2022-11-16T11:16:36.975Z,7.45
2022-11-16T11:19:25.758Z,7.32
2022-11-16T11:22:00.367Z,11.02
2022-11-16T11:24:44.476Z,8.85
2022-11-16T11:27:12.425Z,9.07
2022-11-16T11:29:42.896Z,9.25
2022-11-16T11:32:23.840Z,11.35
2022-11-16T11:34:56.145Z,12.10
2022-11-16T11:37:35.681Z,11.13
2022-11-16T11:40:17.196Z,12.73
2022-11-16T11:42:57.930Z,11.85
2022-11-16T11:45:32.845Z,13.30
2022-11-16T11:48:08.001Z,14.15
2022-11-16T11:50:54.984Z,14.20
2022-11-16T11:53:46.637Z,14.13
2022-11-16T11:56:14.623Z,15.15
2022-11-16T11:58:43.258Z,15.40
2022-11-16T12:01:20.716Z,15.75
2022-11-16T12:04:28.280Z,15.25
2022-11-16T12:09:58.078Z,15.10
2022-11-16T12:12:55.948Z,16.38
2022-11-16T12:15:36.051Z,15.15
2022-11-16T12:18:08.940Z,16.25
2022-11-16T12:20:46.694Z,13.73
2022-11-16T12:23:26.016Z,16.58
2022-11-16T12:26:32.938Z,12.65
2022-11-16T12:29:23.879Z,13.35
2022-11-16T12:32:28.028Z,11.93
2022-11-16T12:35:07.527Z,12.95
2022-11-16T12:37:59.940Z,13.75
2022-11-16T12:40:42.224Z,13.95
2022-11-16T12:43:15.363Z,14.85
2022-11-16T12:46:00.220Z,14.25
2022-11-16T12:48:45.216Z,15.48
2022-11-16T12:51:33.329Z,13.30
2022-11-16T12:54:06.389Z,13.10
2022-11-16T12:56:51.433Z,11.70
2022-11-16T12:59:46.263Z,14.27
2022-11-16T13:02:35.458Z,13.18
2022-11-16T13:05:39.833Z,12.25
2022-11-16T13:08:17.985Z,11.00
2022-11-16T13:10:49.104Z,13.65
2022-11-16T13:13:38.332Z,12.43
2022-11-16T13:16:07.224Z,12.10
2022-11-16T13:18:40.169Z,13.15
2022-11-16T13:21:13.357Z,13.82
2022-11-16T13:23:49.521Z,13.38
2022-11-16T13:26:41.078Z,14.10
2022-11-16T13:29:37.013Z,15.07
2022-11-16T13:32:36.280Z,12.80
2022-11-16T13:35:06.421Z,14.27
2022-11-16T13:37:39.433Z,13.55
2022-11-16T13:40:06.516Z,14.82
2022-11-16T13:42:42.984Z,12.32
2022-11-16T13:45:19.689Z,15.13
2022-11-16T13:47:55.709Z,12.75
2022-11-16T13:50:37.086Z,12.27
2022-11-16T13:56:01.878Z,13.25
2022-11-16T13:58:31.133Z,13.57
2022-11-16T14:01:10.408Z,13.30
2022-11-16T14:03:39.941Z,13.10
2022-11-16T14:06:13.273Z,11.65
2022-11-16T14:08:40.304Z,14.48
2022-11-16T14:11:30.641Z,13.93
2022-11-16T14:14:01.204Z,13.25
2022-11-16T14:16:29.138Z,11.63
2022-11-16T14:19:00.113Z,11.70
2022-11-16T14:21:49.779Z,13.18
2022-11-16T14:24:43.453Z,13.05
2022-11-16T14:27:31.020Z,12.50
2022-11-16T14:30:31.125Z,13.80
2022-11-16T14:32:58.673Z,12.77
2022-11-16T14:35:30.285Z,13.20
2022-11-16T14:38:00.836Z,12.85
2022-11-16T14:40:28.656Z,13.93
2022-11-16T14:43:16.382Z,13.80
2022-11-16T14:45:49.694Z,14.05
2022-11-16T14:48:19.300Z,13.73
2022-11-16T14:51:00.453Z,15.88
2022-11-16T14:53:29.355Z,12.85
2022-11-16T14:56:16.692Z,14.38
2022-11-16T14:58:58.852Z,14.73
2022-11-16T15:01:35.728Z,14.45
2022-11-16T15:04:12.469Z,15.45
2022-11-16T15:06:53.166Z,15.93
2022-11-16T15:09:29.941Z,15.88
2022-11-16T15:12:17.490Z,14.88
2022-11-16T15:14:49.809Z,15.00
2022-11-16T15:17:19.718Z,13.88
2022-11-16T15:20:00.964Z,14.82
2022-11-16T15:22:30.598Z,14.82
2022-11-16T15:25:01.438Z,13.50
2022-11-16T15:27:37.750Z,14.77
2022-11-16T15:30:16.192Z,15.10
2022-11-16T15:32:45.259Z,13.55
2022-11-16T15:35:32.375Z,15.02
2022-11-16T15:38:11.753Z,18.38
2022-11-16T15:40:39.234Z,15.30
2022-11-16T15:43:06.945Z,16.63
2022-11-16T15:45:34.554Z,16.77
2022-11-16T15:48:03.431Z,16.30
2022-11-16T15:50:31.518Z,14.10
2022-11-16T15:52:59.788Z,15.20
2022-11-16T15:55:30.596Z,16.98
2022-11-16T15:58:05.342Z,16.48
2022-11-16T16:00:35.530Z,17.85
2022-11-16T16:03:07.034Z,14.27
2022-11-16T16:05:36.780Z,14.00
2022-11-16T16:08:05.654Z,13.25
2022-11-16T16:10:33.030Z,20.52
2022-11-16T16:13:01.348Z,17.17
2022-11-16T16:15:33.798Z,15.90
2022-11-16T16:18:02.524Z,17.00
2022-11-16T16:20:32.133Z,21.85
2022-11-16T16:23:12.906Z,17.63
2022-11-16T16:25:40.005Z,20.10
2022-11-16T16:28:07.099Z,18.80
2022-11-16T16:30:34.978Z,20.25
2022-11-16T16:33:02.390Z,18.55
2022-11-16T16:35:29.657Z,22.90
2022-11-16T16:37:58.905Z,20.02
2022-11-16T16:40:26.499Z,22.67
2022-11-16T16:42:55.590Z,25.42
2022-11-16T16:45:43.726Z,22.45
2022-11-16T16:48:12.574Z,19.55
2022-11-16T16:50:39.794Z,20.10
2022-11-16T16:53:06.987Z,21.80
2022-11-16T16:55:37.520Z,20.52
2022-11-16T16:58:05.696Z,22.02
2022-11-16T17:00:33.012Z,24.40
2022-11-16T17:03:00.137Z,28.83
2022-11-16T17:05:27.274Z,20.63
2022-11-16T17:07:56.070Z,22.15
2022-11-16T17:10:23.528Z,23.13
2022-11-16T17:12:54.105Z,26.70
2022-11-16T17:15:21.707Z,23.02
2022-11-16T17:17:48.954Z,25.65
2022-11-16T17:20:16.430Z,25.45
2022-11-16T17:22:43.970Z,22.63
2022-11-16T17:25:11.105Z,28.80
2022-11-16T17:27:38.315Z,25.73
2022-11-16T17:30:05.977Z,26.80
2022-11-16T17:32:33.118Z,29.20
2022-11-16T17:35:00.252Z,28.00
2022-11-16T17:37:27.356Z,27.33
2022-11-16T17:39:54.451Z,26.30
2022-11-16T17:42:21.586Z,25.25
2022-11-16T17:44:49.606Z,25.17
2022-11-16T17:47:16.688Z,26.23
2022-11-16T17:49:43.778Z,25.63
2022-11-16T17:52:10.943Z,24.40
2022-11-16T17:54:38.103Z,28.98
2022-11-16T17:57:05.257Z,27.10
2022-11-16T17:59:32.812Z,28.95
2022-11-16T18:01:59.901Z,24.20
2022-11-16T18:04:27.062Z,27.40
2022-11-16T18:06:54.264Z,26.10
2022-11-16T18:09:21.490Z,29.45
2022-11-16T18:11:48.589Z,29.90
2022-11-16T18:14:15.705Z,29.95
2022-11-16T18:16:43.454Z,29.15
2022-11-16T18:19:16.709Z,25.80
2022-11-16T18:21:44.416Z,28.38
2022-11-16T18:24:12.502Z,29.52
2022-11-16T18:26:40.494Z,29.80
2022-11-16T18:29:12.104Z,25.95
2022-11-16T18:31:39.299Z,28.20
2022-11-16T18:34:06.406Z,29.02
2022-11-16T18:36:33.734Z,28.33
2022-11-16T18:39:00.900Z,33.05
2022-11-16T18:41:29.568Z,29.05
2022-11-16T18:44:01.559Z,35.72
2022-11-16T18:46:31.001Z,31.02
2022-11-16T18:48:58.969Z,29.13
2022-11-16T18:51:27.496Z,36.33
2022-11-16T18:53:55.195Z,32.33
2022-11-16T18:56:23.425Z,32.55
2022-11-16T18:58:52.421Z,31.55
2022-11-16T19:01:25.035Z,31.48
2022-11-16T19:03:53.779Z,34.78
2022-11-16T19:06:21.956Z,31.40
2022-11-16T19:08:56.350Z,32.08
2022-11-16T19:11:24.525Z,33.00
2022-11-16T19:13:56.973Z,32.33
2022-11-16T19:16:24.688Z,31.65
2022-11-16T19:18:52.365Z,29.00
2022-11-16T19:21:19.704Z,32.30
2022-11-16T19:23:48.980Z,35.63
2022-11-16T19:26:17.729Z,35.58
2022-11-16T19:28:46.889Z,38.58
2022-11-16T19:31:16.139Z,34.05
2022-11-16T19:33:44.490Z,33.80
2022-11-16T19:36:14.259Z,34.65
2022-11-16T19:38:42.144Z,39.33
2022-11-16T19:41:11.423Z,37.97
2022-11-16T19:43:39.003Z,33.00
2022-11-16T19:46:08.748Z,29.95
2022-11-16T19:48:36.043Z,34.05
2022-11-16T19:51:07.835Z,31.80
2022-11-16T19:53:35.770Z,37.88
2022-11-16T19:56:03.953Z,35.45
2022-11-16T19:58:32.038Z,38.08
2022-11-16T20:01:07.787Z,33.22
2022-11-16T20:03:38.102Z,35.13
2022-11-16T20:06:07.896Z,36.95
2022-11-16T20:08:35.945Z,39.45
2022-11-16T20:11:17.715Z,35.80
2022-11-16T20:13:44.829Z,34.47
2022-11-16T20:16:13.173Z,39.35
2022-11-16T20:18:41.499Z,36.67
2022-11-16T20:21:13.282Z,37.22
2022-11-16T20:23:40.393Z,41.10
2022-11-16T20:26:09.747Z,38.90
2022-11-16T20:28:39.338Z,40.40
2022-11-16T20:31:13.473Z,36.53
2022-11-16T20:33:41.602Z,32.85
2022-11-16T20:36:11.892Z,38.92
2022-11-16T20:38:39.602Z,33.58
2022-11-16T20:41:29.908Z,34.50
2022-11-16T20:43:58.942Z,33.83
2022-11-16T20:46:28.609Z,30.55
2022-11-16T20:48:57.172Z,32.88
2022-11-16T20:51:24.732Z,30.90
2022-11-16T20:53:52.458Z,28.48
2022-11-16T20:56:19.822Z,31.80
2022-11-16T20:58:48.533Z,31.70
2022-11-16T21:01:20.829Z,34.78
2022-11-16T21:03:48.113Z,37.42
2022-11-16T21:06:15.244Z,32.85
2022-11-16T21:08:42.457Z,38.70
2022-11-16T21:11:14.550Z,29.38
2022-11-16T21:14:00.526Z,29.50
2022-11-16T21:16:27.618Z,27.00
2022-11-16T21:18:55.650Z,28.80
2022-11-16T21:21:22.853Z,26.50
2022-11-16T21:23:54.034Z,24.80
2022-11-16T21:26:29.081Z,30.25
2022-11-16T21:28:57.798Z,29.02
2022-11-16T21:31:27.654Z,30.83
2022-11-16T21:33:55.631Z,31.42
2022-11-16T21:36:25.410Z,27.58
2022-11-16T21:38:53.047Z,25.60
2022-11-16T21:41:22.961Z,27.55
2022-11-16T21:43:50.375Z,29.63
2022-11-16T21:46:18.481Z,33.10
2022-11-16T21:48:47.948Z,28.20
2022-11-16T21:51:17.373Z,26.92
2022-11-16T21:53:45.021Z,34.10
2022-11-16T21:56:14.445Z,31.30
2022-11-16T21:58:42.153Z,35.53
2022-11-16T22:01:10.876Z,29.48
2022-11-16T22:03:38.904Z,33.53
2022-11-16T22:06:26.396Z,33.47
2022-11-16T22:08:53.480Z,33.70
2022-11-16T22:11:21.998Z,35.80
2022-11-16T22:13:50.147Z,33.42
2022-11-16T22:16:18.565Z,32.00
2022-11-16T22:18:45.742Z,30.05
2022-11-16T22:21:12.989Z,31.15
2022-11-16T22:23:40.482Z,32.85
2022-11-16T22:26:10.792Z,30.42
2022-11-16T22:28:39.288Z,29.30
2022-11-16T22:31:09.648Z,33.17
2022-11-16T22:33:37.650Z,32.67
2022-11-16T22:36:05.749Z,29.33
2022-11-16T22:38:33.441Z,29.25
2022-11-16T22:41:00.549Z,34.03
2022-11-16T22:43:29.903Z,27.88
2022-11-16T22:45:58.937Z,32.33
2022-11-16T22:48:34.041Z,28.65
2022-11-16T22:51:22.396Z,26.25
2022-11-16T22:53:54.316Z,27.45
2022-11-16T22:56:22.055Z,26.63
2022-11-16T22:58:49.417Z,26.95
2022-11-16T23:01:16.685Z,24.25
2022-11-16T23:03:43.884Z,28.50
2022-11-16T23:06:11.106Z,27.75
2022-11-16T23:08:39.949Z,26.42
2022-11-16T23:11:26.815Z,23.88
2022-11-16T23:14:12.783Z,29.55
2022-11-16T23:16:40.748Z,24.08
2022-11-16T23:19:28.646Z,23.42
2022-11-16T23:22:15.451Z,25.83
2022-11-16T23:25:01.721Z,29.80
2022-11-16T23:27:40.616Z,25.30
2022-11-16T23:30:12.391Z,24.52
2022-11-16T23:32:41.681Z,25.60
2022-11-16T23:35:10.009Z,27.45
2022-11-16T23:37:57.463Z,25.50
2022-11-16T23:40:29.823Z,24.60
2022-11-16T23:43:16.362Z,22.27
2022-11-16T23:45:43.902Z,23.02
2022-11-16T23:48:12.636Z,22.25
2022-11-16T23:50:39.740Z,18.83
2022-11-16T23:53:08.256Z,22.33
2022-11-16T23:55:40.525Z,23.83
2022-11-16T23:58:12.592Z,23.48
